createdAt,value
2018-12-03T00:01:31.744Z,12.90
2018-12-03T00:04:19.251Z,12.90
2018-12-03T00:06:48.249Z,12.90
2018-12-03T00:09:17.213Z,12.80
2018-12-03T00:11:46.190Z,12.40
2018-12-03T00:14:15.191Z,12.40
2018-12-03T00:16:44.135Z,12.50
2018-12-03T00:19:13.121Z,12.30
2018-12-03T00:21:42.076Z,12.50
2018-12-03T00:24:11.026Z,12.50
2018-12-03T00:26:39.969Z,12.20
2018-12-03T00:29:08.922Z,12.10
2018-12-03T00:31:37.832Z,12.10
2018-12-03T00:34:06.827Z,12.20
2018-12-03T00:36:35.769Z,12.10
2018-12-03T00:39:07.365Z,12.30
2018-12-03T00:41:36.417Z,12.20
2018-12-03T00:44:05.776Z,12.30
2018-12-03T00:46:34.718Z,12.40
2018-12-03T00:49:03.748Z,12.40
2018-12-03T00:51:32.663Z,12.40
2018-12-03T00:54:01.623Z,12.40
2018-12-03T00:56:30.545Z,12.40
2018-12-03T00:58:59.483Z,12.30
2018-12-03T01:01:34.441Z,12.30
2018-12-03T01:04:04.094Z,12.40
2018-12-03T01:06:33.026Z,12.30
2018-12-03T01:09:01.957Z,12.40
2018-12-03T01:11:30.884Z,12.40
2018-12-03T01:13:59.833Z,12.40
2018-12-03T01:16:28.778Z,12.40
2018-12-03T01:18:57.763Z,12.30
2018-12-03T01:21:26.758Z,12.40
2018-12-03T01:23:55.700Z,12.40
2018-12-03T01:26:24.625Z,12.50
2018-12-03T01:28:53.575Z,12.50
2018-12-03T01:31:22.530Z,12.30
2018-12-03T01:33:51.461Z,12.40
2018-12-03T01:36:20.426Z,12.30
2018-12-03T01:38:49.365Z,12.60
2018-12-03T01:41:18.354Z,12.60
2018-12-03T01:43:47.305Z,12.30
2018-12-03T01:46:16.283Z,12.20
2018-12-03T01:48:45.242Z,12.30
2018-12-03T01:51:14.204Z,12.50
2018-12-03T01:53:43.129Z,12.60
2018-12-03T01:56:12.090Z,12.30
2018-12-03T01:58:41.033Z,12.30
2018-12-03T02:01:09.993Z,12.20
2018-12-03T02:03:38.937Z,12.50
2018-12-03T02:06:07.926Z,12.50
2018-12-03T02:08:36.879Z,12.40
2018-12-03T02:11:06.110Z,12.30
2018-12-03T02:13:35.060Z,12.20
2018-12-03T02:16:04.022Z,12.20
2018-12-03T02:18:32.983Z,12.50
2018-12-03T02:21:01.953Z,12.50
2018-12-03T02:23:37.109Z,12.50
2018-12-03T02:26:06.060Z,12.60
2018-12-03T02:28:35.022Z,12.60
2018-12-03T02:31:03.977Z,12.50
2018-12-03T02:33:32.932Z,12.50
2018-12-03T02:36:32.246Z,12.40
2018-12-03T02:39:02.689Z,12.50
2018-12-03T02:41:33.080Z,12.50
2018-12-03T02:44:03.419Z,12.40
2018-12-03T02:46:33.843Z,12.40
2018-12-03T02:49:04.193Z,12.40
2018-12-03T02:51:34.529Z,12.40
2018-12-03T02:54:05.009Z,12.50
2018-12-03T02:56:35.473Z,12.60
2018-12-03T02:59:05.924Z,12.50
2018-12-03T03:01:36.402Z,12.20
2018-12-03T03:04:07.136Z,12.30
2018-12-03T03:06:37.588Z,12.40
2018-12-03T03:09:12.439Z,12.20
2018-12-03T03:11:42.852Z,12.30
2018-12-03T03:14:13.189Z,12.10
2018-12-03T03:16:43.517Z,12.20
2018-12-03T03:19:13.907Z,12.30
2018-12-03T03:21:44.282Z,12.30
2018-12-03T03:24:14.615Z,12.30
2018-12-03T03:26:45.098Z,12.30
2018-12-03T03:29:15.407Z,12.20
2018-12-03T03:31:45.924Z,12.20
2018-12-03T03:34:16.218Z,12.00
2018-12-03T03:36:46.597Z,11.80
2018-12-03T03:39:17.027Z,11.90
2018-12-03T03:41:47.519Z,12.00
2018-12-03T03:44:17.969Z,12.10
2018-12-03T03:46:48.289Z,11.90
2018-12-03T03:49:18.541Z,11.70
2018-12-03T03:51:48.826Z,11.70
2018-12-03T03:54:25.056Z,11.70
2018-12-03T03:56:51.434Z,12.00
2018-12-03T03:59:21.792Z,12.10
2018-12-03T04:01:52.107Z,12.20
2018-12-03T04:04:22.541Z,12.00
2018-12-03T04:06:52.813Z,11.90
2018-12-03T04:09:23.054Z,12.00
2018-12-03T04:11:53.341Z,11.90
2018-12-03T04:14:23.595Z,11.80
2018-12-03T04:16:54.463Z,11.80
2018-12-03T04:19:24.960Z,11.70
2018-12-03T04:21:55.321Z,12.00
2018-12-03T04:24:25.566Z,12.20
2018-12-03T04:26:56.081Z,12.10
2018-12-03T04:29:26.345Z,12.20
2018-12-03T04:31:57.059Z,12.30
2018-12-03T04:34:27.424Z,12.40
2018-12-03T04:36:57.738Z,12.40
2018-12-03T04:39:28.175Z,12.10
2018-12-03T04:41:58.557Z,12.00
2018-12-03T04:44:29.086Z,12.30
2018-12-03T04:46:59.676Z,12.40
2018-12-03T04:49:30.128Z,12.50
2018-12-03T04:52:00.542Z,12.40
2018-12-03T04:54:30.827Z,12.40
2018-12-03T04:57:01.153Z,12.30
2018-12-03T04:59:31.516Z,12.10
2018-12-03T05:02:01.908Z,12.10
2018-12-03T05:04:33.046Z,12.10
2018-12-03T05:07:03.316Z,12.10
2018-12-03T05:09:33.635Z,12.00
2018-12-03T05:12:04.064Z,12.10
2018-12-03T05:14:34.464Z,12.10
2018-12-03T05:17:04.848Z,12.20
2018-12-03T05:19:35.169Z,12.30
2018-12-03T05:22:05.436Z,12.20
2018-12-03T05:24:35.797Z,12.00
2018-12-03T05:27:06.463Z,12.20
2018-12-03T05:29:37.005Z,12.20
2018-12-03T05:32:07.503Z,12.20
2018-12-03T05:34:38.014Z,12.10
2018-12-03T05:37:08.508Z,12.10
2018-12-03T05:39:38.893Z,12.00
2018-12-03T05:42:09.367Z,12.10
2018-12-03T05:44:39.694Z,12.10
2018-12-03T05:47:10.233Z,12.10
2018-12-03T05:49:40.501Z,12.10
2018-12-03T05:52:11.638Z,12.00
2018-12-03T05:54:42.083Z,11.80
2018-12-03T05:57:12.548Z,11.80
2018-12-03T05:59:43.251Z,12.10
2018-12-03T06:02:13.603Z,12.20
2018-12-03T06:04:43.980Z,12.20
2018-12-03T06:07:14.411Z,12.30
2018-12-03T06:09:44.802Z,12.40
2018-12-03T06:12:18.063Z,12.40
2018-12-03T06:14:48.435Z,12.30
2018-12-03T06:17:18.876Z,11.90
2018-12-03T06:19:49.282Z,11.80
2018-12-03T06:22:19.624Z,12.00
2018-12-03T06:24:49.913Z,12.00
2018-12-03T06:27:20.258Z,11.90
2018-12-03T06:29:50.659Z,12.00
2018-12-03T06:32:21.091Z,11.90
2018-12-03T06:34:51.355Z,12.10
2018-12-03T06:37:21.747Z,11.90
2018-12-03T06:39:52.119Z,12.00
2018-12-03T06:42:22.462Z,12.10
2018-12-03T06:44:52.839Z,12.40
2018-12-03T06:47:23.110Z,11.90
2018-12-03T06:49:53.516Z,12.00
2018-12-03T06:52:23.792Z,12.30
2018-12-03T06:54:54.160Z,12.40
2018-12-03T06:57:24.521Z,12.30
2018-12-03T06:59:54.805Z,12.20
2018-12-03T07:02:25.140Z,12.20
2018-12-03T07:04:55.643Z,12.20
2018-12-03T07:07:25.940Z,12.30
2018-12-03T07:09:56.310Z,12.50
2018-12-03T07:12:29.555Z,12.30
2018-12-03T07:14:59.833Z,12.30
2018-12-03T07:17:31.573Z,12.20
2018-12-03T07:20:02.147Z,12.10
2018-12-03T07:22:32.563Z,12.20
2018-12-03T07:25:03.260Z,11.90
2018-12-03T07:27:33.595Z,12.10
2018-12-03T07:30:04.075Z,12.30
2018-12-03T07:32:34.326Z,11.90
2018-12-03T07:35:04.967Z,11.90
2018-12-03T07:37:35.403Z,12.00
2018-12-03T07:40:07.153Z,11.90
2018-12-03T07:42:37.648Z,11.90
2018-12-03T07:45:15.526Z,11.90
2018-12-03T07:47:46.121Z,12.10
2018-12-03T07:50:20.816Z,11.80
2018-12-03T07:52:51.092Z,12.10
2018-12-03T07:55:25.700Z,12.10
2018-12-03T07:58:16.682Z,12.10
2018-12-03T08:00:57.451Z,12.00
2018-12-03T08:03:27.796Z,12.00
2018-12-03T08:05:58.161Z,12.00
2018-12-03T08:08:28.426Z,12.00
2018-12-03T08:11:01.064Z,12.10
2018-12-03T08:13:31.508Z,12.10
2018-12-03T08:16:01.903Z,12.10
2018-12-03T08:18:32.226Z,12.40
2018-12-03T08:21:07.998Z,12.30
2018-12-03T08:23:53.795Z,12.20
2018-12-03T08:26:24.244Z,12.30
2018-12-03T08:28:54.504Z,12.10
2018-12-03T08:31:24.817Z,12.20
2018-12-03T08:33:55.066Z,12.10
2018-12-03T08:36:25.497Z,12.20
2018-12-03T08:38:55.896Z,12.10
2018-12-03T08:41:26.255Z,12.10
2018-12-03T08:43:56.620Z,12.20
2018-12-03T08:46:27.110Z,12.20
2018-12-03T08:48:57.521Z,12.20
2018-12-03T08:51:28.010Z,12.40
2018-12-03T08:53:58.362Z,12.50
2018-12-03T08:56:28.733Z,12.40
2018-12-03T08:58:59.058Z,12.40
2018-12-03T09:01:29.416Z,12.70
2018-12-03T09:04:06.062Z,12.40
2018-12-03T09:06:36.346Z,12.70
2018-12-03T09:09:11.051Z,12.60
2018-12-03T09:11:51.680Z,12.50
2018-12-03T09:14:28.711Z,12.60
2018-12-03T09:17:02.402Z,12.80
2018-12-03T09:19:31.618Z,12.70
2018-12-03T09:22:01.931Z,12.60
2018-12-03T09:24:32.376Z,12.40
2018-12-03T09:27:02.773Z,12.30
2018-12-03T09:29:33.672Z,12.40
2018-12-03T09:32:04.181Z,12.00
2018-12-03T09:34:34.747Z,12.00
2018-12-03T09:37:05.156Z,12.20
2018-12-03T09:39:35.577Z,12.10
2018-12-03T09:42:06.464Z,12.60
2018-12-03T09:44:36.707Z,12.40
2018-12-03T09:47:07.237Z,12.50
2018-12-03T09:49:37.471Z,12.60
2018-12-03T09:52:08.433Z,12.70
2018-12-03T09:54:38.693Z,12.80
2018-12-03T09:57:09.108Z,12.90
2018-12-03T09:59:39.467Z,12.80
2018-12-03T10:02:09.758Z,12.70
2018-12-03T10:04:43.140Z,12.80
2018-12-03T10:07:19.929Z,12.80
2018-12-03T10:09:50.272Z,12.80
2018-12-03T10:12:22.404Z,13.10
2018-12-03T10:14:52.875Z,13.20
2018-12-03T10:17:23.408Z,13.20
2018-12-03T10:19:53.749Z,13.10
2018-12-03T10:22:24.054Z,13.30
2018-12-03T10:24:54.333Z,13.00
2018-12-03T10:27:24.809Z,12.90
2018-12-03T10:29:55.090Z,13.10
2018-12-03T10:32:25.353Z,12.90
2018-12-03T10:34:55.651Z,12.90
2018-12-03T10:37:25.916Z,13.10
2018-12-03T10:39:57.073Z,13.00
2018-12-03T10:42:27.428Z,12.90
2018-12-03T10:44:57.814Z,13.00
2018-12-03T10:47:28.226Z,13.00
2018-12-03T10:49:58.609Z,13.20
2018-12-03T10:52:28.954Z,13.20
2018-12-03T10:54:59.204Z,13.30
2018-12-03T10:57:31.336Z,13.00
2018-12-03T11:00:01.744Z,13.00
2018-12-03T11:02:51.369Z,13.10
2018-12-03T11:05:41.280Z,13.20
2018-12-03T11:08:13.492Z,13.20
2018-12-03T11:10:43.998Z,13.00
2018-12-03T11:13:14.448Z,13.00
2018-12-03T11:15:44.724Z,13.00
2018-12-03T11:18:15.049Z,13.10
2018-12-03T11:20:45.736Z,12.90
2018-12-03T11:23:21.392Z,12.70
2018-12-03T11:25:52.221Z,12.90
2018-12-03T11:28:22.556Z,13.00
2018-12-03T11:30:54.840Z,13.00
2018-12-03T11:33:27.231Z,13.10
2018-12-03T11:35:59.288Z,13.40
2018-12-03T11:38:59.749Z,13.20
2018-12-03T11:41:30.237Z,13.00
2018-12-03T11:44:00.612Z,12.90
2018-12-03T11:46:30.973Z,12.90
2018-12-03T11:49:01.374Z,13.20
2018-12-03T11:51:31.714Z,13.30
2018-12-03T11:54:02.077Z,13.20
2018-12-03T11:56:32.517Z,13.10
2018-12-03T11:59:03.223Z,13.40
2018-12-03T12:01:33.733Z,13.30
2018-12-03T12:04:04.596Z,13.40
2018-12-03T12:06:35.159Z,13.50
2018-12-03T12:09:10.539Z,13.60
2018-12-03T12:11:41.484Z,13.60
2018-12-03T12:14:20.520Z,13.50
2018-12-03T12:16:50.933Z,13.30
2018-12-03T12:19:22.291Z,13.40
2018-12-03T12:21:52.671Z,13.20
2018-12-03T12:24:23.117Z,13.30
2018-12-03T12:26:55.102Z,13.40
2018-12-03T12:29:25.404Z,13.40
2018-12-03T12:31:55.663Z,13.20
2018-12-03T12:34:26.108Z,13.40
2018-12-03T12:36:56.474Z,13.40
2018-12-03T12:39:26.983Z,13.30
2018-12-03T12:41:57.345Z,13.40
2018-12-03T12:44:27.716Z,13.20
2018-12-03T12:47:01.374Z,12.90
2018-12-03T12:49:31.692Z,13.00
2018-12-03T12:52:02.074Z,13.00
2018-12-03T12:54:32.324Z,13.10
2018-12-03T12:57:02.855Z,13.40
2018-12-03T12:59:33.310Z,13.30
2018-12-03T13:02:03.670Z,13.40
2018-12-03T13:04:34.063Z,13.30
2018-12-03T13:07:04.448Z,13.20
2018-12-03T13:09:34.884Z,12.90
2018-12-03T13:12:05.333Z,13.10
2018-12-03T13:14:35.570Z,13.10
2018-12-03T13:17:06.236Z,13.30
2018-12-03T13:19:36.779Z,13.40
2018-12-03T13:22:07.341Z,13.50
2018-12-03T13:24:37.797Z,13.50
2018-12-03T13:27:09.057Z,13.30
2018-12-03T13:29:39.552Z,13.30
2018-12-03T13:32:10.637Z,13.40
2018-12-03T13:34:41.852Z,13.30
2018-12-03T13:37:12.245Z,13.30
2018-12-03T13:39:42.926Z,13.30
2018-12-03T13:42:13.970Z,13.40
2018-12-03T13:44:44.260Z,13.20
2018-12-03T13:47:14.803Z,13.40
2018-12-03T13:49:45.097Z,13.10
2018-12-03T13:52:15.504Z,13.30
2018-12-03T13:54:45.854Z,13.40
2018-12-03T13:57:16.194Z,13.30
2018-12-03T13:59:46.679Z,13.30
2018-12-03T14:02:17.072Z,13.30
2018-12-03T14:04:47.608Z,13.30
2018-12-03T14:07:32.182Z,13.00
2018-12-03T14:10:42.665Z,13.00
2018-12-03T14:13:39.819Z,12.90
2018-12-03T14:16:46.040Z,13.00
2018-12-03T14:19:22.889Z,13.10
2018-12-03T14:22:12.749Z,12.80
2018-12-03T14:24:45.174Z,12.80
2018-12-03T14:27:16.182Z,12.80
2018-12-03T14:29:48.412Z,12.90
2018-12-03T14:32:18.776Z,13.10
2018-12-03T14:34:49.319Z,13.00
2018-12-03T14:37:19.804Z,12.90
2018-12-03T14:39:50.262Z,12.70
2018-12-03T14:42:20.649Z,12.80
2018-12-03T14:44:51.118Z,12.50
2018-12-03T14:47:21.500Z,12.40
2018-12-03T14:49:52.050Z,12.40
2018-12-03T14:52:22.595Z,12.40
2018-12-03T14:54:53.139Z,12.30
2018-12-03T14:57:23.718Z,12.50
2018-12-03T14:59:54.330Z,12.50
2018-12-03T15:02:24.688Z,12.50
2018-12-03T15:04:55.267Z,12.30
2018-12-03T15:07:25.815Z,12.30
2018-12-03T15:09:56.229Z,12.40
2018-12-03T15:12:26.783Z,12.50
2018-12-03T15:14:57.254Z,12.50
2018-12-03T15:17:27.793Z,12.50
2018-12-03T15:19:58.389Z,12.70
2018-12-03T15:22:28.949Z,12.90
2018-12-03T15:24:59.432Z,12.70
2018-12-03T15:27:29.931Z,12.80
2018-12-03T15:30:00.246Z,12.70
2018-12-03T15:32:30.829Z,12.10
2018-12-03T15:35:01.199Z,12.50
2018-12-03T15:37:31.715Z,12.60
2018-12-03T15:40:02.263Z,12.60
2018-12-03T15:42:32.788Z,12.20
2018-12-03T15:45:03.365Z,12.50
2018-12-03T15:47:33.989Z,12.50
2018-12-03T15:50:04.447Z,12.50
2018-12-03T15:52:35.078Z,12.50
2018-12-03T15:55:06.286Z,12.20
2018-12-03T15:57:36.803Z,11.50
2018-12-03T16:00:10.253Z,11.90
2018-12-03T16:02:40.824Z,12.20
2018-12-03T16:05:19.561Z,12.40
2018-12-03T16:07:50.430Z,12.50
2018-12-03T16:10:20.981Z,12.40
2018-12-03T16:12:52.021Z,12.00
2018-12-03T16:15:22.475Z,12.20
2018-12-03T16:17:53.049Z,12.40
2018-12-03T16:20:23.633Z,12.40
2018-12-03T16:22:54.178Z,12.40
2018-12-03T16:25:24.647Z,11.80
2018-12-03T16:27:55.245Z,11.80
2018-12-03T16:30:26.375Z,12.20
2018-12-03T16:32:56.800Z,12.40
2018-12-03T16:35:27.366Z,12.40
2018-12-03T16:37:57.771Z,12.20
2018-12-03T16:40:28.126Z,12.10
2018-12-03T16:42:59.049Z,12.30
2018-12-03T16:45:29.377Z,12.40
2018-12-03T16:47:59.771Z,12.30
2018-12-03T16:50:30.052Z,12.00
2018-12-03T16:53:00.508Z,11.60
2018-12-03T16:55:30.869Z,11.60
2018-12-03T16:58:01.354Z,11.50
2018-12-03T17:00:31.636Z,11.80
2018-12-03T17:03:01.945Z,12.10
2018-12-03T17:05:32.307Z,12.20
2018-12-03T17:08:02.835Z,12.10
2018-12-03T17:10:33.227Z,12.20
2018-12-03T17:13:03.516Z,12.00
2018-12-03T17:15:33.968Z,12.10
2018-12-03T17:18:04.450Z,12.10
2018-12-03T17:21:15.523Z,12.00
2018-12-03T17:24:02.329Z,12.00
2018-12-03T17:26:32.781Z,11.90
2018-12-03T17:29:03.142Z,12.00
2018-12-03T17:31:33.416Z,12.00
2018-12-03T17:34:03.736Z,12.00
2018-12-03T17:36:38.201Z,12.00
2018-12-03T17:39:10.377Z,12.10
2018-12-03T17:41:40.891Z,12.00
2018-12-03T17:44:11.331Z,11.80
2018-12-03T17:46:42.062Z,11.90
2018-12-03T17:49:12.516Z,11.90
2018-12-03T17:51:42.759Z,11.90
2018-12-03T17:54:13.068Z,11.60
2018-12-03T17:56:43.711Z,11.60
2018-12-03T17:59:14.732Z,11.30
2018-12-03T18:01:45.641Z,11.40
2018-12-03T18:04:17.115Z,11.80
2018-12-03T18:06:48.386Z,11.80
2018-12-03T18:09:19.171Z,11.80
2018-12-03T18:11:50.392Z,11.90
2018-12-03T18:14:21.309Z,11.80
2018-12-03T18:16:51.627Z,11.80
2018-12-03T18:19:22.386Z,11.80
2018-12-03T18:21:53.163Z,11.10
2018-12-03T18:24:23.519Z,11.30
2018-12-03T18:26:54.083Z,11.50
2018-12-03T18:29:24.423Z,11.50
2018-12-03T18:31:55.702Z,10.80
2018-12-03T18:34:25.992Z,10.70
2018-12-03T18:36:56.244Z,10.70
2018-12-03T18:39:26.644Z,10.50
2018-12-03T18:41:58.363Z,10.90
2018-12-03T18:44:30.683Z,10.90
2018-12-03T18:47:01.449Z,10.90
2018-12-03T18:49:35.194Z,11.10
2018-12-03T18:52:06.610Z,11.30
2018-12-03T18:54:37.081Z,11.30
2018-12-03T18:57:08.130Z,11.10
2018-12-03T18:59:39.222Z,11.30
2018-12-03T19:02:09.534Z,11.10
2018-12-03T19:04:40.092Z,11.30
2018-12-03T19:07:10.443Z,11.30
2018-12-03T19:09:40.828Z,11.30
2018-12-03T19:12:11.111Z,11.20
2018-12-03T19:14:41.272Z,11.40
2018-12-03T19:17:11.803Z,11.40
2018-12-03T19:19:42.145Z,11.30
2018-12-03T19:22:12.612Z,11.40
2018-12-03T19:24:43.051Z,11.40
2018-12-03T19:27:13.721Z,11.50
2018-12-03T19:29:44.193Z,11.40
2018-12-03T19:32:14.476Z,11.50
2018-12-03T19:34:44.928Z,11.60
2018-12-03T19:37:16.774Z,11.70
2018-12-03T19:39:47.108Z,11.70
2018-12-03T19:42:17.487Z,11.80
2018-12-03T19:44:47.964Z,11.70
2018-12-03T19:47:18.760Z,11.60
2018-12-03T19:49:49.176Z,11.60
2018-12-03T19:52:19.632Z,11.80
2018-12-03T19:54:50.680Z,11.80
2018-12-03T19:57:25.234Z,11.70
2018-12-03T20:00:00.832Z,11.70
2018-12-03T20:02:34.880Z,11.80
2018-12-03T20:05:20.688Z,11.80
2018-12-03T20:07:51.015Z,11.90
2018-12-03T20:10:22.308Z,11.30
2018-12-03T20:12:55.690Z,10.70
2018-12-03T20:15:26.099Z,10.30
2018-12-03T20:17:56.508Z,10.10
2018-12-03T20:20:44.159Z,10.20
2018-12-03T20:23:24.245Z,10.50
2018-12-03T20:26:14.514Z,10.90
2018-12-03T20:29:11.612Z,11.00
2018-12-03T20:32:23.163Z,11.00
2018-12-03T20:35:21.491Z,11.00
2018-12-03T20:38:05.389Z,11.00
2018-12-03T20:41:04.171Z,10.90
2018-12-03T20:43:35.530Z,10.80
2018-12-03T20:46:21.503Z,10.80
2018-12-03T20:49:32.949Z,10.70
2018-12-03T20:52:08.725Z,11.20
2018-12-03T20:54:39.170Z,11.10
2018-12-03T20:57:09.647Z,11.20
2018-12-03T20:59:39.974Z,11.40
2018-12-03T21:02:13.246Z,11.60
2018-12-03T21:04:43.512Z,11.80
2018-12-03T21:07:13.963Z,11.70
2018-12-03T21:09:44.191Z,11.60
2018-12-03T21:12:14.579Z,11.50
2018-12-03T21:14:44.828Z,11.40
2018-12-03T21:17:15.419Z,11.40
2018-12-03T21:19:48.536Z,11.40
2018-12-03T21:22:19.016Z,11.30
2018-12-03T21:24:49.251Z,11.40
2018-12-03T21:27:19.857Z,11.40
2018-12-03T21:29:52.082Z,11.50
2018-12-03T21:32:22.493Z,11.60
2018-12-03T21:34:52.743Z,11.10
2018-12-03T21:37:23.134Z,11.40
2018-12-03T21:39:56.194Z,11.40
2018-12-03T21:42:26.705Z,11.40
2018-12-03T21:44:56.988Z,11.40
2018-12-03T21:47:27.386Z,11.20
2018-12-03T21:49:57.839Z,11.20
2018-12-03T21:52:28.305Z,11.30
2018-12-03T21:54:58.800Z,11.40
2018-12-03T21:57:29.188Z,11.10
2018-12-03T21:59:59.538Z,11.10
2018-12-03T22:02:30.097Z,11.30
2018-12-03T22:05:00.883Z,11.30
2018-12-03T22:07:31.455Z,11.50
2018-12-03T22:10:01.759Z,11.30
2018-12-03T22:12:32.088Z,11.10
2018-12-03T22:15:02.524Z,11.30
2018-12-03T22:17:32.832Z,11.30
2018-12-03T22:20:03.376Z,11.30
2018-12-03T22:22:33.719Z,11.40
2018-12-03T22:25:04.042Z,11.50
2018-12-03T22:27:34.494Z,11.10
2018-12-03T22:30:05.761Z,11.10
2018-12-03T22:32:36.233Z,11.00
2018-12-03T22:35:07.239Z,11.00
2018-12-03T22:37:37.598Z,11.10
2018-12-03T22:40:08.299Z,11.30
2018-12-03T22:42:38.686Z,11.50
2018-12-03T22:45:09.239Z,11.50
2018-12-03T22:47:39.618Z,11.50
2018-12-03T22:50:10.001Z,11.60
2018-12-03T22:52:40.477Z,11.40
2018-12-03T22:55:12.579Z,11.50
2018-12-03T22:57:43.029Z,11.70
2018-12-03T23:00:33.281Z,11.70
2018-12-03T23:03:03.671Z,11.70
2018-12-03T23:05:34.232Z,11.50
2018-12-03T23:08:04.602Z,11.50
2018-12-03T23:10:34.984Z,11.70
2018-12-03T23:13:05.546Z,11.50
2018-12-03T23:15:36.064Z,11.50
2018-12-03T23:18:06.531Z,11.60
2018-12-03T23:20:37.053Z,11.50
2018-12-03T23:23:08.004Z,11.70
2018-12-03T23:25:38.379Z,11.70
2018-12-03T23:28:08.918Z,11.60
2018-12-03T23:30:39.215Z,11.60
2018-12-03T23:33:09.593Z,11.80
2018-12-03T23:35:41.721Z,11.70
2018-12-03T23:38:12.074Z,11.70
2018-12-03T23:40:42.572Z,11.70
2018-12-03T23:43:12.983Z,11.80
2018-12-03T23:45:44.007Z,11.70
2018-12-03T23:48:14.459Z,11.50
2018-12-03T23:50:44.680Z,11.70
2018-12-03T23:53:15.127Z,11.50
2018-12-03T23:55:45.528Z,11.20
2018-12-03T23:58:15.893Z,11.30
